createdAt,value
2019-03-13T00:02:29.325Z,7.00
2019-03-13T00:04:57.377Z,5.47
2019-03-13T00:07:25.524Z,4.73
2019-03-13T00:09:53.803Z,5.87
2019-03-13T00:12:21.980Z,3.80
2019-03-13T00:14:51.304Z,1.93
2019-03-13T00:17:19.392Z,2.40
2019-03-13T00:19:47.603Z,2.80
2019-03-13T00:22:15.653Z,2.03
2019-03-13T00:24:43.851Z,3.57
2019-03-13T00:27:12.333Z,3.67
2019-03-13T00:29:40.519Z,3.67
2019-03-13T00:32:11.255Z,2.93
2019-03-13T00:34:39.427Z,2.37
2019-03-13T00:37:07.640Z,2.07
2019-03-13T00:39:35.740Z,3.47
2019-03-13T00:42:05.934Z,3.40
2019-03-13T00:44:34.147Z,2.33
2019-03-13T00:47:02.286Z,5.53
2019-03-13T00:49:30.359Z,3.90
2019-03-13T00:51:58.725Z,4.90
2019-03-13T00:54:26.807Z,6.10
2019-03-13T00:56:54.917Z,5.57
2019-03-13T00:59:23.182Z,3.57
2019-03-13T01:02:22.565Z,5.77
2019-03-13T01:05:16.089Z,5.53
2019-03-13T01:07:44.262Z,6.90
2019-03-13T01:10:12.914Z,4.57
2019-03-13T01:12:41.075Z,7.43
2019-03-13T01:15:09.596Z,8.60
2019-03-13T01:17:39.052Z,7.20
2019-03-13T01:20:08.451Z,7.80
2019-03-13T01:22:36.748Z,5.03
2019-03-13T01:25:05.446Z,10.53
2019-03-13T01:27:33.645Z,12.23
2019-03-13T01:30:01.770Z,8.13
2019-03-13T01:32:49.649Z,6.73
2019-03-13T01:35:49.504Z,6.43
2019-03-13T01:38:17.689Z,10.87
2019-03-13T01:40:45.819Z,6.03
2019-03-13T01:43:14.081Z,10.83
2019-03-13T01:45:42.276Z,15.47
2019-03-13T01:48:10.403Z,8.80
2019-03-13T01:50:39.451Z,10.37
2019-03-13T01:53:07.541Z,10.00
2019-03-13T01:55:35.966Z,9.47
2019-03-13T01:58:04.224Z,10.43
2019-03-13T02:00:32.967Z,7.90
2019-03-13T02:03:01.185Z,6.53
2019-03-13T02:05:29.271Z,10.63
2019-03-13T02:07:57.455Z,10.53
2019-03-13T02:10:25.550Z,9.17
2019-03-13T02:12:53.669Z,7.87
2019-03-13T02:15:21.774Z,7.27
2019-03-13T02:17:49.839Z,7.37
2019-03-13T02:20:18.093Z,7.20
2019-03-13T02:22:46.289Z,7.57
2019-03-13T02:25:15.945Z,9.70
2019-03-13T02:27:44.004Z,8.87
2019-03-13T02:30:13.770Z,8.23
2019-03-13T02:32:41.981Z,8.80
2019-03-13T02:35:10.210Z,9.03
2019-03-13T02:37:38.447Z,7.63
2019-03-13T02:40:08.331Z,8.07
2019-03-13T02:42:36.657Z,16.27
2019-03-13T02:45:05.899Z,12.07
2019-03-13T02:47:35.361Z,11.70
2019-03-13T02:50:20.065Z,9.00
2019-03-13T02:52:48.305Z,7.60
2019-03-13T02:55:16.440Z,10.93
2019-03-13T02:57:44.563Z,9.33
2019-03-13T03:00:15.325Z,8.17
2019-03-13T03:02:55.351Z,9.57
2019-03-13T03:05:23.468Z,7.60
2019-03-13T03:07:51.818Z,8.13
2019-03-13T03:10:19.857Z,11.20
2019-03-13T03:12:47.883Z,8.77
2019-03-13T03:15:17.346Z,13.30
2019-03-13T03:17:45.732Z,11.13
2019-03-13T03:20:16.529Z,10.03
2019-03-13T03:22:44.594Z,11.37
2019-03-13T03:25:13.740Z,12.30
2019-03-13T03:27:41.857Z,7.37
2019-03-13T03:30:15.253Z,10.50
2019-03-13T03:32:43.422Z,8.53
2019-03-13T03:35:11.490Z,10.33
2019-03-13T03:37:39.653Z,10.37
2019-03-13T03:40:09.899Z,9.43
2019-03-13T03:42:37.967Z,12.07
2019-03-13T03:45:07.005Z,12.07
2019-03-13T03:47:35.061Z,11.83
2019-03-13T03:50:04.075Z,12.37
2019-03-13T03:52:32.194Z,7.30
2019-03-13T03:55:00.615Z,14.03
2019-03-13T03:57:28.736Z,11.23
2019-03-13T03:59:56.921Z,10.50
2019-03-13T04:02:25.043Z,10.43
2019-03-13T04:04:53.388Z,8.83
2019-03-13T04:07:21.792Z,8.30
2019-03-13T04:09:50.111Z,11.47
2019-03-13T04:12:18.166Z,11.77
2019-03-13T04:14:46.305Z,11.63
2019-03-13T04:17:14.353Z,9.63
2019-03-13T04:19:42.444Z,14.70
2019-03-13T04:22:10.722Z,8.33
2019-03-13T04:24:38.799Z,12.80
2019-03-13T04:27:06.840Z,13.97
2019-03-13T04:29:34.956Z,9.47
2019-03-13T04:32:03.132Z,15.10
2019-03-13T04:34:31.223Z,12.20
2019-03-13T04:36:59.348Z,12.50
2019-03-13T04:39:27.650Z,12.67
2019-03-13T04:41:55.843Z,14.67
2019-03-13T04:44:23.926Z,16.10
2019-03-13T04:46:52.018Z,10.13
2019-03-13T04:49:20.163Z,9.23
2019-03-13T04:51:48.211Z,16.30
2019-03-13T04:54:16.292Z,12.40
2019-03-13T04:56:44.303Z,14.90
2019-03-13T04:59:13.365Z,14.20
2019-03-13T05:01:41.429Z,11.73
2019-03-13T05:04:09.561Z,17.30
2019-03-13T05:06:37.723Z,13.00
2019-03-13T05:09:23.663Z,11.83
2019-03-13T05:11:51.737Z,18.43
2019-03-13T05:14:19.800Z,14.57
2019-03-13T05:16:48.081Z,11.30
2019-03-13T05:19:16.350Z,11.17
2019-03-13T05:21:44.494Z,9.80
2019-03-13T05:24:12.631Z,14.87
2019-03-13T05:26:40.749Z,13.77
2019-03-13T05:29:08.816Z,11.07
2019-03-13T05:31:36.921Z,17.70
2019-03-13T05:34:05.107Z,11.77
2019-03-13T05:36:33.243Z,13.87
2019-03-13T05:39:04.776Z,11.20
2019-03-13T05:41:33.195Z,14.13
2019-03-13T05:44:01.307Z,14.77
2019-03-13T05:46:29.395Z,14.00
2019-03-13T05:48:57.510Z,16.33
2019-03-13T05:51:25.576Z,19.97
2019-03-13T05:53:53.680Z,10.80
2019-03-13T05:56:21.801Z,17.47
2019-03-13T05:58:49.981Z,15.37
2019-03-13T06:01:18.217Z,13.27
2019-03-13T06:03:46.355Z,15.23
2019-03-13T06:06:14.422Z,16.97
2019-03-13T06:08:42.516Z,19.30
2019-03-13T06:11:10.544Z,15.40
2019-03-13T06:13:38.828Z,16.13
2019-03-13T06:16:07.035Z,18.47
2019-03-13T06:18:35.168Z,18.13
2019-03-13T06:21:03.353Z,15.70
2019-03-13T06:23:32.401Z,17.37
2019-03-13T06:26:00.460Z,21.47
2019-03-13T06:28:28.520Z,17.83
2019-03-13T06:30:56.646Z,17.40
2019-03-13T06:33:24.702Z,13.93
2019-03-13T06:35:52.764Z,15.03
2019-03-13T06:38:20.904Z,22.10
2019-03-13T06:40:48.946Z,19.47
2019-03-13T06:43:17.019Z,17.60
2019-03-13T06:45:45.217Z,18.27
2019-03-13T06:48:13.696Z,17.23
2019-03-13T06:50:41.841Z,17.70
2019-03-13T06:53:09.930Z,18.17
2019-03-13T06:55:37.962Z,19.40
2019-03-13T06:58:06.257Z,17.50
2019-03-13T07:00:57.087Z,15.00
2019-03-13T07:03:56.933Z,12.90
2019-03-13T07:06:43.031Z,16.27
2019-03-13T07:09:33.634Z,15.70
2019-03-13T07:12:39.163Z,12.83
2019-03-13T07:15:36.454Z,13.20
2019-03-13T07:18:13.409Z,17.33
2019-03-13T07:21:19.022Z,13.03
2019-03-13T07:24:02.717Z,18.73
2019-03-13T07:26:53.284Z,17.27
2019-03-13T07:29:39.619Z,19.40
2019-03-13T07:32:13.366Z,16.20
2019-03-13T07:34:51.841Z,17.47
2019-03-13T07:37:29.398Z,19.37
2019-03-13T07:40:22.853Z,18.63
2019-03-13T07:43:22.495Z,18.90
2019-03-13T07:46:16.047Z,16.87
2019-03-13T07:49:04.811Z,20.93
2019-03-13T07:51:55.514Z,14.83
2019-03-13T07:54:45.927Z,20.23
2019-03-13T07:57:40.679Z,13.27
2019-03-13T08:00:38.129Z,16.80
2019-03-13T08:03:15.278Z,21.67
2019-03-13T08:06:05.701Z,18.10
2019-03-13T08:08:44.279Z,14.23
2019-03-13T08:11:37.984Z,16.00
2019-03-13T08:14:28.636Z,21.97
2019-03-13T08:17:18.841Z,17.97
2019-03-13T08:20:21.614Z,22.47
2019-03-13T08:23:08.765Z,16.00
2019-03-13T08:26:02.053Z,21.87
2019-03-13T08:28:49.753Z,22.67
2019-03-13T08:31:28.626Z,19.90
2019-03-13T08:34:25.385Z,20.20
2019-03-13T08:37:18.215Z,19.80
2019-03-13T08:40:52.457Z,15.97
2019-03-13T08:43:38.387Z,18.13
2019-03-13T08:46:26.161Z,19.17
2019-03-13T08:49:26.008Z,15.97
2019-03-13T08:52:03.324Z,22.73
2019-03-13T08:54:59.842Z,20.90
2019-03-13T08:57:47.631Z,20.80
2019-03-13T09:00:35.261Z,19.17
2019-03-13T09:03:17.717Z,15.73
2019-03-13T09:06:08.242Z,22.77
2019-03-13T09:09:01.772Z,15.27
2019-03-13T09:11:49.840Z,17.53
2019-03-13T09:14:37.499Z,18.30
2019-03-13T09:17:31.013Z,21.47
2019-03-13T09:20:18.813Z,15.60
2019-03-13T09:23:05.296Z,16.23
2019-03-13T09:25:51.295Z,19.30
2019-03-13T09:28:38.979Z,18.63
2019-03-13T09:31:18.313Z,15.53
2019-03-13T09:33:51.474Z,17.20
2019-03-13T09:36:32.304Z,16.60
2019-03-13T09:39:28.719Z,14.97
2019-03-13T09:42:31.351Z,13.97
2019-03-13T09:45:20.096Z,15.97
2019-03-13T09:48:06.137Z,21.67
2019-03-13T09:50:45.106Z,13.13
2019-03-13T09:53:31.402Z,17.47
2019-03-13T09:56:17.541Z,13.37
2019-03-13T09:59:23.116Z,18.27
2019-03-13T10:02:00.580Z,14.00
2019-03-13T10:04:34.934Z,18.00
2019-03-13T10:07:20.956Z,12.77
2019-03-13T10:10:04.768Z,17.33
2019-03-13T10:12:42.231Z,10.50
2019-03-13T10:15:20.193Z,11.40
2019-03-13T10:18:10.490Z,14.90
2019-03-13T10:20:59.135Z,16.57
2019-03-13T10:23:46.741Z,17.20
2019-03-13T10:26:39.241Z,13.00
2019-03-13T10:29:29.864Z,20.97
2019-03-13T10:32:04.379Z,19.23
2019-03-13T10:34:50.911Z,11.77
2019-03-13T10:37:44.504Z,15.10
2019-03-13T10:40:37.538Z,14.93
2019-03-13T10:43:34.238Z,16.87
2019-03-13T10:46:20.169Z,16.03
2019-03-13T10:49:04.177Z,16.37
2019-03-13T10:51:47.014Z,12.30
2019-03-13T10:54:37.792Z,11.40
2019-03-13T10:57:25.722Z,15.33
2019-03-13T11:00:16.463Z,18.60
2019-03-13T11:03:06.863Z,16.10
2019-03-13T11:05:52.968Z,13.33
2019-03-13T11:08:29.165Z,18.10
2019-03-13T11:11:03.501Z,12.70
2019-03-13T11:13:39.723Z,20.57
2019-03-13T11:16:27.393Z,16.60
2019-03-13T11:19:08.284Z,15.47
2019-03-13T11:21:54.213Z,11.40
2019-03-13T11:24:30.195Z,15.37
2019-03-13T11:27:20.871Z,11.17
2019-03-13T11:30:17.143Z,17.80
2019-03-13T11:33:07.584Z,12.33
2019-03-13T11:36:13.336Z,17.90
2019-03-13T11:39:07.115Z,13.10
2019-03-13T11:41:52.960Z,17.03
2019-03-13T11:44:52.941Z,18.37
2019-03-13T11:47:41.696Z,15.90
2019-03-13T11:50:15.347Z,13.60
2019-03-13T11:53:08.985Z,17.70
2019-03-13T11:55:46.550Z,13.80
2019-03-13T11:58:34.296Z,10.97
2019-03-13T12:01:22.089Z,18.43
2019-03-13T12:04:08.766Z,19.30
2019-03-13T12:06:56.527Z,22.00
2019-03-13T12:09:57.408Z,16.87
2019-03-13T12:12:51.126Z,12.93
2019-03-13T12:15:25.270Z,12.70
2019-03-13T12:18:11.510Z,18.27
2019-03-13T12:20:49.517Z,13.70
2019-03-13T12:23:26.864Z,10.93
2019-03-13T12:26:14.490Z,12.63
2019-03-13T12:29:01.877Z,12.87
2019-03-13T12:31:47.943Z,13.67
2019-03-13T12:34:38.975Z,13.33
2019-03-13T12:37:22.562Z,10.47
2019-03-13T12:40:16.889Z,8.03
2019-03-13T12:42:57.524Z,9.50
2019-03-13T12:45:45.305Z,11.73
2019-03-13T12:48:27.364Z,8.43
2019-03-13T12:51:13.616Z,9.87
2019-03-13T12:53:58.735Z,8.93
2019-03-13T12:56:40.053Z,6.37
2019-03-13T12:59:17.273Z,5.40
2019-03-13T13:02:14.249Z,8.93
2019-03-13T13:05:02.184Z,7.73
2019-03-13T13:07:56.279Z,6.50
2019-03-13T13:10:43.757Z,5.80
2019-03-13T13:13:45.294Z,8.23
2019-03-13T13:19:03.806Z,6.13
2019-03-13T13:21:31.961Z,10.23
2019-03-13T13:24:00.158Z,5.63
2019-03-13T13:26:28.314Z,8.27
2019-03-13T13:28:56.560Z,5.30
2019-03-13T13:31:24.731Z,5.10
2019-03-13T13:33:53.147Z,5.43
2019-03-13T13:36:21.386Z,7.07
2019-03-13T13:38:49.729Z,7.13
2019-03-13T13:41:19.170Z,6.17
2019-03-13T13:43:47.389Z,5.60
2019-03-13T13:46:38.368Z,7.27
2019-03-13T13:49:06.835Z,7.03
2019-03-13T13:51:35.010Z,9.50
2019-03-13T13:54:03.414Z,5.87
2019-03-13T13:56:31.757Z,4.60
2019-03-13T13:58:59.872Z,6.80
2019-03-13T14:01:28.120Z,10.73
2019-03-13T14:03:56.191Z,9.60
2019-03-13T14:06:24.536Z,6.77
2019-03-13T14:08:52.634Z,3.43
2019-03-13T14:11:21.898Z,6.53
2019-03-13T14:13:50.013Z,7.43
2019-03-13T14:16:18.182Z,7.80
2019-03-13T14:18:46.262Z,6.63
2019-03-13T14:21:14.329Z,5.03
2019-03-13T14:23:42.522Z,4.30
2019-03-13T14:26:10.619Z,5.20
2019-03-13T14:28:38.723Z,5.80
2019-03-13T14:31:06.964Z,5.03
2019-03-13T14:33:35.213Z,5.17
2019-03-13T14:36:03.411Z,4.43
2019-03-13T14:38:31.703Z,5.87
2019-03-13T14:41:00.165Z,4.40
2019-03-13T14:43:28.274Z,5.50
2019-03-13T14:45:56.331Z,3.57
2019-03-13T14:48:24.376Z,4.10
2019-03-13T14:50:52.544Z,4.07
2019-03-13T14:53:20.572Z,4.07
2019-03-13T14:55:48.649Z,9.70
2019-03-13T14:58:16.790Z,7.00
2019-03-13T15:00:44.868Z,5.83
2019-03-13T15:03:13.152Z,5.17
2019-03-13T15:05:41.318Z,4.43
2019-03-13T15:08:09.348Z,5.00
2019-03-13T15:10:37.428Z,4.47
2019-03-13T15:13:05.628Z,5.73
2019-03-13T15:15:33.818Z,6.60
2019-03-13T15:18:01.893Z,8.30
2019-03-13T15:20:30.022Z,5.63
2019-03-13T15:22:58.150Z,5.30
2019-03-13T15:25:26.261Z,4.90
2019-03-13T15:27:54.539Z,3.33
2019-03-13T15:30:22.844Z,3.17
2019-03-13T15:32:51.020Z,5.27
2019-03-13T15:35:19.238Z,4.77
2019-03-13T15:37:47.311Z,5.07
2019-03-13T15:40:15.412Z,4.23
2019-03-13T15:42:43.854Z,5.37
2019-03-13T15:45:15.022Z,11.27
2019-03-13T15:47:43.425Z,5.53
2019-03-13T15:50:13.983Z,7.07
2019-03-13T15:52:42.844Z,8.10
2019-03-13T15:55:11.973Z,4.43
2019-03-13T15:57:41.495Z,6.20
2019-03-13T16:00:18.251Z,4.80
2019-03-13T16:02:46.514Z,5.47
2019-03-13T16:05:16.251Z,6.17
2019-03-13T16:07:44.312Z,4.27
2019-03-13T16:10:13.569Z,6.73
2019-03-13T16:12:41.812Z,4.40
2019-03-13T16:15:13.903Z,4.87
2019-03-13T16:17:42.222Z,6.63
2019-03-13T16:20:12.049Z,3.67
2019-03-13T16:22:41.092Z,7.27
2019-03-13T16:25:10.021Z,5.93
2019-03-13T16:27:41.037Z,6.53
2019-03-13T16:30:13.967Z,5.40
2019-03-13T16:32:44.267Z,3.23
2019-03-13T16:35:12.333Z,7.67
2019-03-13T16:37:40.494Z,5.97
2019-03-13T16:40:12.069Z,5.77
2019-03-13T16:42:40.216Z,6.83
2019-03-13T16:45:09.714Z,7.60
2019-03-13T16:47:37.762Z,8.47
2019-03-13T16:50:08.421Z,5.27
2019-03-13T16:52:36.711Z,4.63
2019-03-13T16:55:07.203Z,5.27
2019-03-13T16:57:35.319Z,4.45
2019-03-13T17:00:08.200Z,4.10
2019-03-13T17:02:36.909Z,5.10
2019-03-13T17:05:05.877Z,4.57
2019-03-13T17:07:33.975Z,3.10
2019-03-13T17:10:02.061Z,5.60
2019-03-13T17:12:31.347Z,3.33
2019-03-13T17:14:59.585Z,3.63
2019-03-13T17:17:27.787Z,6.30
2019-03-13T17:19:55.898Z,4.23
2019-03-13T17:22:24.117Z,3.77
2019-03-13T17:24:52.800Z,4.47
2019-03-13T17:27:22.398Z,5.30
2019-03-13T17:29:50.827Z,3.63
2019-03-13T17:32:18.919Z,5.07
2019-03-13T17:34:48.071Z,5.20
2019-03-13T17:37:16.202Z,6.53
2019-03-13T17:39:44.257Z,5.60
2019-03-13T17:42:12.492Z,7.13
2019-03-13T17:44:40.532Z,5.50
2019-03-13T17:47:11.228Z,7.23
2019-03-13T17:49:39.319Z,5.17
2019-03-13T17:52:08.500Z,6.90
2019-03-13T17:54:36.620Z,7.57
2019-03-13T17:57:04.757Z,8.97
2019-03-13T17:59:33.171Z,8.13
2019-03-13T18:02:01.282Z,7.03
2019-03-13T18:04:29.657Z,8.40
2019-03-13T18:06:59.343Z,8.10
2019-03-13T18:09:27.587Z,10.50
2019-03-13T18:11:55.615Z,6.57
2019-03-13T18:14:23.999Z,7.00
2019-03-13T18:16:52.202Z,7.20
2019-03-13T18:19:20.402Z,10.57
2019-03-13T18:21:48.465Z,8.53
2019-03-13T18:24:16.651Z,8.67
2019-03-13T18:26:44.686Z,7.53
2019-03-13T18:29:13.096Z,5.33
2019-03-13T18:31:41.177Z,8.20
2019-03-13T18:34:09.331Z,8.77
2019-03-13T18:36:37.532Z,12.13
2019-03-13T18:39:05.919Z,6.90
2019-03-13T18:41:35.716Z,7.20
2019-03-13T18:44:03.764Z,11.33
2019-03-13T18:46:31.883Z,10.20
2019-03-13T18:48:59.974Z,8.07
2019-03-13T18:51:28.066Z,9.23
2019-03-13T18:53:56.116Z,12.53
2019-03-13T18:56:24.167Z,6.73
2019-03-13T18:58:52.426Z,13.30
2019-03-13T19:01:20.628Z,13.33
2019-03-13T19:03:48.797Z,11.67
2019-03-13T19:06:16.997Z,9.50
2019-03-13T19:08:45.134Z,15.70
2019-03-13T19:11:13.240Z,15.10
2019-03-13T19:13:41.416Z,7.83
2019-03-13T19:16:09.499Z,6.57
2019-03-13T19:18:37.511Z,9.30
2019-03-13T19:21:05.890Z,8.17
2019-03-13T19:23:34.096Z,9.47
2019-03-13T19:26:02.858Z,17.43
2019-03-13T19:28:31.605Z,11.77
2019-03-13T19:30:59.843Z,11.47
2019-03-13T19:33:27.963Z,14.30
2019-03-13T19:35:56.034Z,11.13
2019-03-13T19:38:24.333Z,14.27
2019-03-13T19:40:52.434Z,14.10
2019-03-13T19:43:20.649Z,16.07
2019-03-13T19:45:48.802Z,15.60
2019-03-13T19:48:16.856Z,16.07
2019-03-13T19:50:45.114Z,13.73
2019-03-13T19:53:13.429Z,15.27
2019-03-13T19:55:41.685Z,9.27
2019-03-13T19:58:10.289Z,10.53
2019-03-13T20:00:38.513Z,9.77
2019-03-13T20:03:07.432Z,12.63
2019-03-13T20:05:45.486Z,13.10
2019-03-13T20:08:05.769Z,17.80
2019-03-13T20:10:33.800Z,11.27
2019-03-13T20:13:01.982Z,15.57
2019-03-13T20:15:30.170Z,13.40
2019-03-13T20:18:00.592Z,18.47
2019-03-13T20:20:28.712Z,10.53
2019-03-13T20:22:58.168Z,13.90
2019-03-13T20:25:26.237Z,14.83
2019-03-13T20:27:55.144Z,9.87
2019-03-13T20:30:23.600Z,14.40
2019-03-13T20:32:51.762Z,15.30
2019-03-13T20:35:21.034Z,18.50
2019-03-13T20:37:49.088Z,22.10
2019-03-13T20:40:19.075Z,26.50
2019-03-13T20:42:47.372Z,28.60
2019-03-13T20:45:18.579Z,21.27
2019-03-13T20:47:46.822Z,17.73
2019-03-13T20:50:15.036Z,22.03
2019-03-13T20:52:45.680Z,16.33
2019-03-13T20:55:13.600Z,18.07
2019-03-13T20:57:41.653Z,21.57
2019-03-13T21:00:14.064Z,22.83
2019-03-13T21:02:42.235Z,24.83
2019-03-13T21:05:12.311Z,28.57
2019-03-13T21:07:40.542Z,19.63
2019-03-13T21:10:09.939Z,19.57
2019-03-13T21:12:38.635Z,18.97
2019-03-13T21:15:08.424Z,16.60
2019-03-13T21:17:37.048Z,15.73
2019-03-13T21:20:06.111Z,19.63
2019-03-13T21:22:34.262Z,12.73
2019-03-13T21:25:02.654Z,18.87
2019-03-13T21:27:31.020Z,21.10
2019-03-13T21:29:59.228Z,20.67
2019-03-13T21:32:27.374Z,17.60
2019-03-13T21:34:55.413Z,19.07
2019-03-13T21:37:23.623Z,19.57
2019-03-13T21:39:52.790Z,20.63
2019-03-13T21:42:20.906Z,15.87
2019-03-13T21:44:49.097Z,21.53
2019-03-13T21:47:17.240Z,22.17
2019-03-13T21:49:45.530Z,24.73
2019-03-13T21:52:13.645Z,18.97
2019-03-13T21:54:42.789Z,21.50
2019-03-13T21:57:10.819Z,14.10
2019-03-13T21:59:38.995Z,15.13
2019-03-13T22:02:07.263Z,21.23
2019-03-13T22:04:36.146Z,20.67
2019-03-13T22:07:04.427Z,24.63
2019-03-13T22:09:32.608Z,19.93
2019-03-13T22:12:00.767Z,24.67
2019-03-13T22:14:28.994Z,23.87
2019-03-13T22:16:57.282Z,19.53
2019-03-13T22:19:25.419Z,14.53
2019-03-13T22:21:54.660Z,21.37
2019-03-13T22:24:23.065Z,18.33
2019-03-13T22:26:51.528Z,16.47
2019-03-13T22:29:19.870Z,18.63
2019-03-13T22:31:49.538Z,19.83
2019-03-13T22:34:17.614Z,16.27
2019-03-13T22:36:46.812Z,12.30
2019-03-13T22:39:14.882Z,19.63
2019-03-13T22:41:43.074Z,17.20
2019-03-13T22:44:12.199Z,9.40
2019-03-13T22:46:40.280Z,13.70
2019-03-13T22:49:08.391Z,23.10
2019-03-13T22:51:36.746Z,14.57
2019-03-13T22:54:05.046Z,15.53
2019-03-13T22:56:33.303Z,20.40
2019-03-13T22:59:01.419Z,22.83
2019-03-13T23:01:30.910Z,14.57
2019-03-13T23:03:59.452Z,17.57
2019-03-13T23:06:27.688Z,28.67
2019-03-13T23:08:55.878Z,25.50
2019-03-13T23:11:23.945Z,22.43
2019-03-13T23:13:52.230Z,25.67
2019-03-13T23:16:23.554Z,27.73
2019-03-13T23:18:52.706Z,21.77
2019-03-13T23:21:21.018Z,28.00
2019-03-13T23:23:52.089Z,24.23
2019-03-13T23:26:20.409Z,25.40
2019-03-13T23:28:48.743Z,25.97
2019-03-13T23:31:17.027Z,29.30
2019-03-13T23:33:45.337Z,34.13
2019-03-13T23:36:13.522Z,30.50
2019-03-13T23:38:41.756Z,24.03
2019-03-13T23:41:10.618Z,27.17
2019-03-13T23:43:39.686Z,27.23
2019-03-13T23:46:07.958Z,25.13
2019-03-13T23:48:36.182Z,26.23
2019-03-13T23:51:04.498Z,27.20
2019-03-13T23:53:32.728Z,30.03
2019-03-13T23:56:00.860Z,30.93
2019-03-13T23:58:30.147Z,26.07
